createdAt,value
2018-05-14T00:00:36.997Z,0
2018-05-14T00:01:37.020Z,0
2018-05-14T00:02:36.257Z,0
2018-05-14T00:03:36.566Z,0
2018-05-14T00:04:37.124Z,0
2018-05-14T00:05:37.117Z,0
2018-05-14T00:06:37.185Z,0
2018-05-14T00:07:36.911Z,0
2018-05-14T00:08:37.216Z,0
2018-05-14T00:09:36.705Z,0
2018-05-14T00:10:36.992Z,0
2018-05-14T00:11:36.485Z,0
2018-05-14T00:12:37.030Z,0
2018-05-14T00:13:37.313Z,0
2018-05-14T00:14:37.098Z,0
2018-05-14T00:15:37.109Z,0
2018-05-14T00:16:37.127Z,0
2018-05-14T00:17:37.426Z,0
2018-05-14T00:18:37.167Z,0
2018-05-14T00:19:37.217Z,0
2018-05-14T00:20:37.201Z,0
2018-05-14T00:21:36.976Z,0
2018-05-14T00:22:37.270Z,0
2018-05-14T00:23:37.261Z,0
2018-05-14T00:24:37.041Z,0
2018-05-14T00:25:37.321Z,0
2018-05-14T00:26:37.095Z,0
2018-05-14T00:27:37.652Z,0
2018-05-14T00:28:37.393Z,0
2018-05-14T00:29:37.429Z,0
2018-05-14T00:30:37.457Z,0
2018-05-14T00:31:37.479Z,0
2018-05-14T00:32:37.497Z,0
2018-05-14T00:33:37.528Z,0
2018-05-14T00:34:37.846Z,0
2018-05-14T00:35:37.032Z,0
2018-05-14T00:36:37.967Z,0
2018-05-14T00:37:37.631Z,0
2018-05-14T00:38:37.638Z,0
2018-05-14T00:39:37.942Z,0
2018-05-14T00:40:37.687Z,0
2018-05-14T00:41:38.047Z,0
2018-05-14T00:42:37.443Z,0
2018-05-14T00:43:38.038Z,0
2018-05-14T00:44:38.043Z,0
2018-05-14T00:45:37.867Z,0
2018-05-14T00:46:37.556Z,0
2018-05-14T00:47:38.118Z,0
2018-05-14T00:48:37.582Z,0
2018-05-14T00:49:37.946Z,0
2018-05-14T00:50:38.198Z,0
2018-05-14T00:51:38.213Z,0
2018-05-14T00:52:38.219Z,0
2018-05-14T00:53:38.003Z,0
2018-05-14T00:54:38.011Z,0
2018-05-14T00:55:38.030Z,0
2018-05-14T00:56:38.332Z,0
2018-05-14T00:57:38.328Z,0
2018-05-14T00:58:38.106Z,0
2018-05-14T00:59:38.144Z,0
2018-05-14T01:00:38.126Z,0
2018-05-14T01:01:38.155Z,0
2018-05-14T01:02:38.252Z,0
2018-05-14T01:03:37.927Z,0
2018-05-14T01:04:38.251Z,0
2018-05-14T01:05:38.258Z,0
2018-05-14T01:06:38.842Z,0
2018-05-14T01:07:38.567Z,0
2018-05-14T01:08:38.345Z,0
2018-05-14T01:09:38.086Z,0
2018-05-14T01:10:38.697Z,0
2018-05-14T01:11:38.390Z,0
2018-05-14T01:12:38.420Z,0
2018-05-14T01:13:38.436Z,0
2018-05-14T01:14:38.461Z,0
2018-05-14T01:15:38.764Z,0
2018-05-14T01:16:38.782Z,0
2018-05-14T01:17:38.891Z,0
2018-05-14T01:18:38.563Z,0
2018-05-14T01:19:38.856Z,0
2018-05-14T01:20:38.847Z,0
2018-05-14T01:21:38.909Z,0
2018-05-14T01:22:38.927Z,0
2018-05-14T01:23:38.695Z,0
2018-05-14T01:24:38.700Z,0
2018-05-14T01:25:38.697Z,0
2018-05-14T01:26:38.998Z,0
2018-05-14T01:27:39.058Z,0
2018-05-14T01:28:39.077Z,0
2018-05-14T01:29:39.050Z,0
2018-05-14T01:30:38.855Z,0
2018-05-14T01:31:38.857Z,0
2018-05-14T01:32:39.139Z,0
2018-05-14T01:33:38.892Z,0
2018-05-14T01:34:39.180Z,0
2018-05-14T01:35:38.696Z,0
2018-05-14T01:36:38.960Z,0
2018-05-14T01:37:39.050Z,0
2018-05-14T01:38:39.032Z,0
2018-05-14T01:39:39.322Z,0
2018-05-14T01:40:39.051Z,0
2018-05-14T01:41:39.069Z,0
2018-05-14T01:42:39.121Z,0
2018-05-14T01:43:39.131Z,0
2018-05-14T01:44:38.890Z,0
2018-05-14T01:45:39.443Z,0
2018-05-14T01:46:39.477Z,0
2018-05-14T01:47:39.510Z,0
2018-05-14T01:48:39.215Z,0
2018-05-14T01:49:39.259Z,0
2018-05-14T01:50:39.567Z,0
2018-05-14T01:51:39.306Z,0
2018-05-14T01:52:39.307Z,0
2018-05-14T01:53:39.358Z,0
2018-05-14T01:54:39.096Z,0
2018-05-14T01:55:39.657Z,0
2018-05-14T01:56:39.696Z,0
2018-05-14T01:57:39.449Z,0
2018-05-14T01:58:39.471Z,0
2018-05-14T01:59:39.783Z,0
2018-05-14T02:00:39.501Z,0
2018-05-14T02:01:39.525Z,0
2018-05-14T02:02:39.024Z,0
2018-05-14T02:03:39.874Z,0
2018-05-14T02:04:39.860Z,0
2018-05-14T02:05:39.632Z,0
2018-05-14T02:06:39.647Z,0
2018-05-14T02:07:39.664Z,0
2018-05-14T02:08:39.949Z,0
2018-05-14T02:09:39.722Z,0
2018-05-14T02:10:39.996Z,0
2018-05-14T02:11:39.767Z,0
2018-05-14T02:12:40.055Z,0
2018-05-14T02:13:40.077Z,0
2018-05-14T02:14:39.273Z,0
2018-05-14T02:15:39.587Z,0
2018-05-14T02:16:40.127Z,0
2018-05-14T02:17:40.149Z,0
2018-05-14T02:18:39.918Z,0
2018-05-14T02:19:39.937Z,0
2018-05-14T02:20:40.209Z,0
2018-05-14T02:21:40.241Z,0
2018-05-14T02:22:40.296Z,0
2018-05-14T02:23:40.263Z,0
2018-05-14T02:24:39.763Z,0
2018-05-14T02:25:40.314Z,0
2018-05-14T02:26:40.081Z,0
2018-05-14T02:27:40.391Z,0
2018-05-14T02:28:40.124Z,0
2018-05-14T02:29:40.167Z,0
2018-05-14T02:30:39.903Z,0
2018-05-14T02:31:40.185Z,0
2018-05-14T02:32:40.220Z,0
2018-05-14T02:33:40.528Z,0
2018-05-14T02:34:39.989Z,0
2018-05-14T02:35:40.556Z,0
2018-05-14T02:36:40.309Z,0
2018-05-14T02:37:40.080Z,0
2018-05-14T02:38:40.365Z,0
2018-05-14T02:39:40.659Z,0
2018-05-14T02:40:40.646Z,0
2018-05-14T02:41:40.703Z,0
2018-05-14T02:42:40.715Z,0
2018-05-14T02:43:40.491Z,0
2018-05-14T02:44:40.752Z,0
2018-05-14T02:45:40.520Z,0
2018-05-14T02:46:40.886Z,0
2018-05-14T02:47:40.549Z,0
2018-05-14T02:48:40.843Z,0
2018-05-14T02:49:40.579Z,0
2018-05-14T02:50:40.711Z,0
2018-05-14T02:51:40.673Z,0
2018-05-14T02:52:40.761Z,0
2018-05-14T02:53:40.691Z,0
2018-05-14T02:54:40.979Z,0
2018-05-14T02:55:40.729Z,0
2018-05-14T02:56:41.044Z,0
2018-05-14T02:57:41.146Z,0
2018-05-14T02:58:41.082Z,0
2018-05-14T02:59:41.092Z,4
2018-05-14T03:00:41.110Z,4
2018-05-14T03:01:41.129Z,0
2018-05-14T03:02:41.149Z,0
2018-05-14T03:03:40.914Z,4
2018-05-14T03:04:41.211Z,4
2018-05-14T03:05:40.958Z,4
2018-05-14T03:06:41.001Z,4
2018-05-14T03:07:41.293Z,4
2018-05-14T03:08:41.276Z,8
2018-05-14T03:09:40.773Z,4
2018-05-14T03:10:41.484Z,8
2018-05-14T03:11:41.333Z,8
2018-05-14T03:12:41.392Z,8
2018-05-14T03:13:41.135Z,12
2018-05-14T03:14:41.163Z,8
2018-05-14T03:15:41.176Z,12
2018-05-14T03:16:41.203Z,12
2018-05-14T03:17:40.945Z,16
2018-05-14T03:18:41.513Z,16
2018-05-14T03:19:41.543Z,16
2018-05-14T03:20:41.262Z,16
2018-05-14T03:21:41.567Z,20
2018-05-14T03:22:41.592Z,24
2018-05-14T03:23:41.631Z,24
2018-05-14T03:24:41.623Z,24
2018-05-14T03:25:41.399Z,28
2018-05-14T03:26:41.691Z,32
2018-05-14T03:27:41.428Z,32
2018-05-14T03:28:41.477Z,32
2018-05-14T03:29:41.756Z,36
2018-05-14T03:30:41.524Z,36
2018-05-14T03:31:41.263Z,44
2018-05-14T03:32:41.283Z,44
2018-05-14T03:33:41.812Z,48
2018-05-14T03:34:41.862Z,48
2018-05-14T03:35:41.893Z,52
2018-05-14T03:36:41.900Z,52
2018-05-14T03:37:41.916Z,56
2018-05-14T03:38:41.681Z,56
2018-05-14T03:39:41.426Z,60
2018-05-14T03:40:41.976Z,60
2018-05-14T03:41:42.242Z,68
2018-05-14T03:42:41.766Z,72
2018-05-14T03:43:42.055Z,76
2018-05-14T03:44:42.089Z,76
2018-05-14T03:45:42.110Z,80
2018-05-14T03:46:41.843Z,84
2018-05-14T03:47:42.164Z,88
2018-05-14T03:48:41.909Z,92
2018-05-14T03:49:42.218Z,92
2018-05-14T03:50:42.218Z,96
2018-05-14T03:51:42.229Z,100
2018-05-14T03:52:41.978Z,104
2018-05-14T03:53:42.003Z,104
2018-05-14T03:54:42.045Z,108
2018-05-14T03:55:42.341Z,112
2018-05-14T03:56:42.335Z,112
2018-05-14T03:57:42.384Z,120
2018-05-14T03:58:42.396Z,120
2018-05-14T03:59:42.156Z,124
2018-05-14T04:00:42.157Z,124
2018-05-14T04:01:42.492Z,128
2018-05-14T04:02:42.486Z,132
2018-05-14T04:03:41.962Z,136
2018-05-14T04:04:42.558Z,136
2018-05-14T04:05:42.280Z,136
2018-05-14T04:06:42.573Z,144
2018-05-14T04:07:42.041Z,144
2018-05-14T04:08:42.582Z,144
2018-05-14T04:09:42.352Z,152
2018-05-14T04:10:42.393Z,152
2018-05-14T04:11:42.635Z,156
2018-05-14T04:12:42.413Z,156
2018-05-14T04:13:42.454Z,156
2018-05-14T04:14:42.472Z,164
2018-05-14T04:15:42.755Z,164
2018-05-14T04:16:42.338Z,168
2018-05-14T04:17:42.541Z,168
2018-05-14T04:18:42.578Z,168
2018-05-14T04:19:42.919Z,172
2018-05-14T04:20:42.862Z,172
2018-05-14T04:21:42.895Z,176
2018-05-14T04:22:42.631Z,176
2018-05-14T04:23:42.948Z,180
2018-05-14T04:24:42.979Z,180
2018-05-14T04:25:42.960Z,184
2018-05-14T04:26:42.759Z,188
2018-05-14T04:27:43.010Z,184
2018-05-14T04:28:42.766Z,188
2018-05-14T04:29:42.885Z,188
2018-05-14T04:30:43.058Z,192
2018-05-14T04:31:43.087Z,192
2018-05-14T04:32:42.835Z,196
2018-05-14T04:33:42.890Z,196
2018-05-14T04:34:42.912Z,200
2018-05-14T04:35:42.907Z,200
2018-05-14T04:36:42.942Z,200
2018-05-14T04:37:43.209Z,204
2018-05-14T04:38:43.277Z,204
2018-05-14T04:39:43.271Z,208
2018-05-14T04:40:43.282Z,208
2018-05-14T04:41:43.306Z,212
2018-05-14T04:42:42.799Z,212
2018-05-14T04:43:43.084Z,216
2018-05-14T04:44:43.129Z,212
2018-05-14T04:45:43.424Z,220
2018-05-14T04:46:43.155Z,216
2018-05-14T04:47:43.171Z,220
2018-05-14T04:48:43.205Z,224
2018-05-14T04:49:43.491Z,224
2018-05-14T04:50:43.231Z,224
2018-05-14T04:51:43.536Z,224
2018-05-14T04:52:43.529Z,224
2018-05-14T04:53:43.309Z,228
2018-05-14T04:54:43.588Z,228
2018-05-14T04:55:43.617Z,228
2018-05-14T04:56:43.374Z,232
2018-05-14T04:57:43.414Z,236
2018-05-14T04:58:43.437Z,232
2018-05-14T04:59:43.703Z,236
2018-05-14T05:00:43.786Z,236
2018-05-14T05:01:43.755Z,236
2018-05-14T05:02:43.220Z,236
2018-05-14T05:03:43.517Z,240
2018-05-14T05:04:43.797Z,240
2018-05-14T05:05:43.582Z,244
2018-05-14T05:06:43.850Z,240
2018-05-14T05:07:43.879Z,244
2018-05-14T05:08:43.629Z,244
2018-05-14T05:09:43.645Z,244
2018-05-14T05:10:43.378Z,244
2018-05-14T05:11:43.152Z,244
2018-05-14T05:12:43.724Z,244
2018-05-14T05:13:44.018Z,248
2018-05-14T05:14:43.976Z,248
2018-05-14T05:15:43.792Z,248
2018-05-14T05:16:43.733Z,248
2018-05-14T05:17:44.114Z,252
2018-05-14T05:18:44.102Z,252
2018-05-14T05:19:43.845Z,252
2018-05-14T05:20:43.612Z,256
2018-05-14T05:21:43.911Z,256
2018-05-14T05:22:43.936Z,256
2018-05-14T05:23:43.940Z,260
2018-05-14T05:24:44.226Z,260
2018-05-14T05:25:44.262Z,260
2018-05-14T05:26:44.271Z,260
2018-05-14T05:27:44.298Z,260
2018-05-14T05:28:44.068Z,264
2018-05-14T05:29:44.094Z,264
2018-05-14T05:30:44.118Z,264
2018-05-14T05:31:44.388Z,264
2018-05-14T05:32:44.638Z,264
2018-05-14T05:33:44.425Z,268
2018-05-14T05:34:44.331Z,268
2018-05-14T05:35:44.472Z,268
2018-05-14T05:36:44.233Z,264
2018-05-14T05:37:44.428Z,268
2018-05-14T05:38:44.002Z,272
2018-05-14T05:39:44.553Z,268
2018-05-14T05:40:44.319Z,272
2018-05-14T05:41:44.606Z,272
2018-05-14T05:42:44.650Z,272
2018-05-14T05:43:44.366Z,272
2018-05-14T05:44:44.389Z,272
2018-05-14T05:45:44.397Z,272
2018-05-14T05:46:44.709Z,272
2018-05-14T05:47:44.458Z,276
2018-05-14T05:48:44.496Z,276
2018-05-14T05:49:44.518Z,276
2018-05-14T05:50:44.788Z,280
2018-05-14T05:51:44.536Z,280
2018-05-14T05:52:44.829Z,280
2018-05-14T05:53:44.851Z,284
2018-05-14T05:54:44.867Z,284
2018-05-14T05:55:44.627Z,284
2018-05-14T05:56:44.927Z,284
2018-05-14T05:57:44.676Z,284
2018-05-14T05:58:44.699Z,284
2018-05-14T05:59:44.424Z,284
2018-05-14T06:00:44.460Z,284
2018-05-14T06:01:44.483Z,284
2018-05-14T06:02:44.780Z,288
2018-05-14T06:03:45.058Z,288
2018-05-14T06:04:45.115Z,288
2018-05-14T06:05:44.852Z,288
2018-05-14T06:06:45.182Z,292
2018-05-14T06:07:44.870Z,292
2018-05-14T06:08:44.620Z,296
2018-05-14T06:09:44.941Z,296
2018-05-14T06:10:44.980Z,296
2018-05-14T06:11:45.218Z,292
2018-05-14T06:12:45.448Z,296
2018-05-14T06:13:45.039Z,296
2018-05-14T06:14:45.395Z,296
2018-05-14T06:15:45.051Z,296
2018-05-14T06:16:45.077Z,296
2018-05-14T06:17:44.835Z,296
2018-05-14T06:18:45.119Z,296
2018-05-14T06:19:45.142Z,300
2018-05-14T06:20:45.165Z,300
2018-05-14T06:21:44.933Z,296
2018-05-14T06:22:45.266Z,300
2018-05-14T06:23:45.519Z,300
2018-05-14T06:24:45.546Z,300
2018-05-14T06:25:45.534Z,304
2018-05-14T06:26:45.300Z,304
2018-05-14T06:27:45.343Z,308
2018-05-14T06:28:45.618Z,308
2018-05-14T06:29:45.631Z,308
2018-05-14T06:30:45.657Z,308
2018-05-14T06:31:45.691Z,312
2018-05-14T06:32:45.433Z,312
2018-05-14T06:33:45.706Z,312
2018-05-14T06:34:45.197Z,316
2018-05-14T06:35:45.578Z,316
2018-05-14T06:36:44.982Z,316
2018-05-14T06:37:45.797Z,320
2018-05-14T06:38:45.552Z,320
2018-05-14T06:39:45.585Z,324
2018-05-14T06:40:45.859Z,324
2018-05-14T06:41:45.896Z,324
2018-05-14T06:42:45.921Z,328
2018-05-14T06:43:45.946Z,328
2018-05-14T06:44:45.684Z,332
2018-05-14T06:45:45.980Z,332
2018-05-14T06:46:46.013Z,328
2018-05-14T06:47:46.039Z,332
2018-05-14T06:48:45.760Z,332
2018-05-14T06:49:46.124Z,332
2018-05-14T06:50:46.078Z,340
2018-05-14T06:51:45.817Z,336
2018-05-14T06:52:45.841Z,336
2018-05-14T06:53:45.876Z,336
2018-05-14T06:54:45.992Z,344
2018-05-14T06:55:45.899Z,340
2018-05-14T06:56:46.221Z,344
2018-05-14T06:57:45.968Z,344
2018-05-14T06:58:45.997Z,348
2018-05-14T06:59:46.023Z,348
2018-05-14T07:00:46.069Z,348
2018-05-14T07:01:46.338Z,352
2018-05-14T07:02:46.344Z,356
2018-05-14T07:03:46.372Z,356
2018-05-14T07:04:46.125Z,356
2018-05-14T07:05:46.414Z,356
2018-05-14T07:06:46.512Z,360
2018-05-14T07:07:46.442Z,360
2018-05-14T07:08:46.187Z,364
2018-05-14T07:09:46.225Z,364
2018-05-14T07:10:46.509Z,364
2018-05-14T07:11:46.545Z,364
2018-05-14T07:12:46.566Z,364
2018-05-14T07:13:46.636Z,368
2018-05-14T07:14:46.344Z,372
2018-05-14T07:15:46.370Z,372
2018-05-14T07:16:46.271Z,372
2018-05-14T07:17:46.380Z,372
2018-05-14T07:18:46.434Z,376
2018-05-14T07:19:46.727Z,380
2018-05-14T07:20:46.478Z,384
2018-05-14T07:21:46.748Z,388
2018-05-14T07:22:46.522Z,388
2018-05-14T07:23:46.550Z,388
2018-05-14T07:24:46.624Z,392
2018-05-14T07:25:46.575Z,396
2018-05-14T07:26:46.595Z,400
2018-05-14T07:27:46.633Z,408
2018-05-14T07:28:46.897Z,412
2018-05-14T07:29:46.689Z,416
2018-05-14T07:30:46.418Z,412
2018-05-14T07:31:46.728Z,420
2018-05-14T07:32:47.022Z,424
2018-05-14T07:33:47.009Z,424
2018-05-14T07:34:46.778Z,428
2018-05-14T07:35:46.807Z,436
2018-05-14T07:36:46.564Z,440
2018-05-14T07:37:47.148Z,452
2018-05-14T07:38:46.858Z,456
2018-05-14T07:39:47.398Z,460
2018-05-14T07:40:46.620Z,464
2018-05-14T07:41:46.960Z,468
2018-05-14T07:42:47.136Z,476
2018-05-14T07:43:47.140Z,480
2018-05-14T07:44:47.113Z,484
2018-05-14T07:45:47.325Z,492
2018-05-14T07:46:47.334Z,496
2018-05-14T07:47:47.374Z,500
2018-05-14T07:48:47.089Z,508
2018-05-14T07:49:47.404Z,512
2018-05-14T07:50:47.405Z,512
2018-05-14T07:52:02.059Z,524
2018-05-14T07:52:47.473Z,524
2018-05-14T07:53:47.459Z,532
2018-05-14T07:54:47.256Z,536
2018-05-14T07:55:47.525Z,544
2018-05-14T07:56:47.095Z,548
2018-05-14T07:57:47.570Z,556
2018-05-14T07:58:47.592Z,568
2018-05-14T07:59:47.613Z,564
2018-05-14T08:00:47.655Z,572
2018-05-14T08:01:47.395Z,576
2018-05-14T08:02:47.413Z,576
2018-05-14T08:03:47.180Z,584
2018-05-14T08:04:47.467Z,588
2018-05-14T08:05:48.224Z,596
2018-05-14T08:06:47.789Z,604
2018-05-14T08:07:47.532Z,608
2018-05-14T08:08:47.552Z,608
2018-05-14T08:09:47.561Z,616
2018-05-14T08:10:47.306Z,620
2018-05-14T08:11:48.236Z,628
2018-05-14T08:12:47.938Z,636
2018-05-14T08:13:47.655Z,640
2018-05-14T08:14:48.020Z,640
2018-05-14T08:15:47.735Z,648
2018-05-14T08:16:47.458Z,652
2018-05-14T08:17:47.489Z,660
2018-05-14T08:18:48.068Z,664
2018-05-14T08:19:47.814Z,668
2018-05-14T08:20:48.109Z,680
2018-05-14T08:21:47.838Z,680
2018-05-14T08:22:47.600Z,688
2018-05-14T08:23:48.159Z,692
2018-05-14T08:24:48.168Z,704
2018-05-14T08:25:48.224Z,712
2018-05-14T08:26:47.444Z,720
2018-05-14T08:27:47.728Z,724
2018-05-14T08:28:48.317Z,732
2018-05-14T08:29:47.810Z,740
2018-05-14T08:30:48.061Z,744
2018-05-14T08:31:48.375Z,744
2018-05-14T08:32:47.867Z,752
2018-05-14T08:33:48.396Z,760
2018-05-14T08:34:47.911Z,768
2018-05-14T08:35:48.453Z,776
2018-05-14T08:36:47.951Z,788
2018-05-14T08:37:48.267Z,788
2018-05-14T08:38:48.543Z,792
2018-05-14T08:39:48.554Z,800
2018-05-14T08:40:48.318Z,800
2018-05-14T08:41:48.621Z,804
2018-05-14T08:42:48.670Z,816
2018-05-14T08:43:48.640Z,820
2018-05-14T08:44:48.435Z,824
2018-05-14T08:45:48.729Z,832
2018-05-14T08:46:47.920Z,844
2018-05-14T08:47:48.743Z,848
2018-05-14T08:48:48.789Z,856
2018-05-14T08:49:48.827Z,864
2018-05-14T08:50:48.571Z,864
2018-05-14T08:51:48.580Z,884
2018-05-14T08:52:48.371Z,884
2018-05-14T08:53:48.859Z,880
2018-05-14T08:54:48.739Z,888
2018-05-14T08:55:48.938Z,896
2018-05-14T08:56:48.965Z,916
2018-05-14T08:57:48.911Z,912
2018-05-14T08:58:49.026Z,908
2018-05-14T08:59:49.030Z,920
2018-05-14T09:00:49.355Z,932
2018-05-14T09:01:48.842Z,940
2018-05-14T09:02:48.859Z,948
2018-05-14T09:03:48.877Z,956
2018-05-14T09:04:48.642Z,956
2018-05-14T09:05:49.212Z,968
2018-05-14T09:06:49.203Z,980
2018-05-14T09:07:48.993Z,984
2018-05-14T09:08:49.540Z,984
2018-05-14T09:09:48.767Z,996
2018-05-14T09:10:49.092Z,1000
2018-05-14T09:11:49.445Z,1004
2018-05-14T09:12:49.379Z,1008
2018-05-14T09:13:48.870Z,1008
2018-05-14T09:14:49.259Z,1020
2018-05-14T09:15:49.470Z,1028
2018-05-14T09:16:49.218Z,1048
2018-05-14T09:17:49.508Z,1052
2018-05-14T09:18:49.560Z,1064
2018-05-14T09:19:49.399Z,1068
2018-05-14T09:20:49.048Z,1076
2018-05-14T09:21:49.612Z,1088
2018-05-14T09:22:49.631Z,1088
2018-05-14T09:23:49.672Z,1100
2018-05-14T09:24:49.172Z,1104
2018-05-14T09:25:49.457Z,1116
2018-05-14T09:26:49.469Z,1124
2018-05-14T09:27:49.500Z,1136
2018-05-14T09:28:49.527Z,1140
2018-05-14T09:29:49.838Z,1148
2018-05-14T09:30:49.849Z,1160
2018-05-14T09:31:49.898Z,1164
2018-05-14T09:32:49.896Z,1168
2018-05-14T09:33:49.639Z,1172
2018-05-14T09:34:49.694Z,1172
2018-05-14T09:35:49.992Z,1188
2018-05-14T09:36:50.009Z,1200
2018-05-14T09:37:49.508Z,1212
2018-05-14T09:38:49.801Z,1212
2018-05-14T09:39:49.541Z,1228
2018-05-14T09:40:49.581Z,1244
2018-05-14T09:41:49.959Z,1252
2018-05-14T09:42:49.894Z,1252
2018-05-14T09:43:49.946Z,1264
2018-05-14T09:44:49.981Z,1272
2018-05-14T09:45:49.719Z,1272
2018-05-14T09:46:49.728Z,1296
2018-05-14T09:47:50.566Z,1312
2018-05-14T09:48:50.072Z,1332
2018-05-14T09:51:00.348Z,1352
2018-05-14T09:51:10.197Z,1352
2018-05-14T09:52:10.198Z,1360
2018-05-14T09:53:10.427Z,1364
2018-05-14T09:54:09.984Z,1368
2018-05-14T09:55:10.304Z,1376
2018-05-14T09:56:10.313Z,1392
2018-05-14T09:57:09.811Z,1404
2018-05-14T09:58:10.158Z,1396
2018-05-14T09:59:10.137Z,1392
2018-05-14T10:00:10.175Z,1396
2018-05-14T10:01:10.191Z,1404
2018-05-14T10:02:10.511Z,1412
2018-05-14T10:03:10.273Z,1448
2018-05-14T10:04:10.029Z,1476
2018-05-14T10:05:10.454Z,1456
2018-05-14T10:06:10.623Z,1476
2018-05-14T10:07:10.629Z,1484
2018-05-14T10:08:10.399Z,1508
2018-05-14T10:09:10.420Z,1484
2018-05-14T10:10:10.453Z,1512
2018-05-14T10:11:10.758Z,1520
2018-05-14T10:12:10.524Z,1524
2018-05-14T10:13:10.846Z,1524
2018-05-14T10:14:10.822Z,1544
2018-05-14T10:15:10.603Z,1560
2018-05-14T10:16:10.624Z,1556
2018-05-14T10:17:10.575Z,1568
2018-05-14T10:18:10.925Z,1568
2018-05-14T10:19:10.954Z,1556
2018-05-14T10:20:11.033Z,1540
2018-05-14T10:21:11.045Z,1548
2018-05-14T10:22:10.786Z,1560
2018-05-14T10:23:11.095Z,1584
2018-05-14T10:24:10.885Z,1584
2018-05-14T10:25:10.886Z,1580
2018-05-14T10:26:10.628Z,1588
2018-05-14T10:27:10.954Z,1604
2018-05-14T10:28:10.957Z,1616
2018-05-14T10:29:10.735Z,1636
2018-05-14T10:30:11.020Z,1644
2018-05-14T10:31:11.304Z,1640
2018-05-14T10:32:11.592Z,1660
2018-05-14T10:33:11.391Z,1688
2018-05-14T10:34:11.419Z,1684
2018-05-14T10:35:11.431Z,1696
2018-05-14T10:36:11.190Z,1708
2018-05-14T10:37:11.234Z,1716
2018-05-14T10:38:11.268Z,1744
2018-05-14T10:39:11.569Z,1772
2018-05-14T10:40:11.311Z,1756
2018-05-14T10:41:11.333Z,1740
2018-05-14T10:42:11.115Z,1744
2018-05-14T10:43:11.401Z,1776
2018-05-14T10:44:11.450Z,1788
2018-05-14T10:45:11.490Z,1792
2018-05-14T10:46:11.758Z,1812
2018-05-14T10:47:11.530Z,1816
2018-05-14T10:48:11.818Z,1856
2018-05-14T10:49:11.583Z,1844
2018-05-14T10:50:11.634Z,1852
2018-05-14T10:51:11.629Z,1860
2018-05-14T10:52:11.687Z,1864
2018-05-14T10:53:11.686Z,1872
2018-05-14T10:54:11.464Z,1864
2018-05-14T10:55:12.044Z,1856
2018-05-14T10:56:11.815Z,1868
2018-05-14T10:57:12.088Z,1892
2018-05-14T10:58:11.859Z,1900
2018-05-14T10:59:12.176Z,1904
2018-05-14T11:00:12.212Z,1888
2018-05-14T11:01:11.407Z,1904
2018-05-14T11:02:12.260Z,1916
2018-05-14T11:03:12.284Z,1928
2018-05-14T11:04:12.631Z,1916
2018-05-14T11:05:12.357Z,1916
2018-05-14T11:06:12.385Z,1928
2018-05-14T11:07:12.408Z,1940
2018-05-14T11:08:11.881Z,1952
2018-05-14T11:09:12.466Z,1964
2018-05-14T11:10:12.212Z,1988
2018-05-14T11:11:12.248Z,1984
2018-05-14T11:12:12.524Z,1996
2018-05-14T11:13:12.321Z,1980
2018-05-14T11:14:12.334Z,1992
2018-05-14T11:15:12.371Z,1996
2018-05-14T11:16:12.407Z,2000
2018-05-14T11:17:12.440Z,2024
2018-05-14T11:18:12.210Z,2036
2018-05-14T11:19:12.507Z,2044
2018-05-14T11:20:12.626Z,2052
2018-05-14T11:21:12.821Z,2064
2018-05-14T11:22:12.866Z,2072
2018-05-14T11:23:12.080Z,2068
2018-05-14T11:24:12.940Z,2084
2018-05-14T11:25:12.958Z,2088
2018-05-14T11:26:12.715Z,2096
2018-05-14T11:27:13.023Z,2100
2018-05-14T11:28:13.046Z,2100
2018-05-14T11:29:13.064Z,2112
2018-05-14T11:30:13.118Z,2132
2018-05-14T11:31:13.126Z,2148
2018-05-14T11:32:12.902Z,2156
2018-05-14T11:33:13.203Z,2180
2018-05-14T11:34:13.238Z,2208
2018-05-14T11:35:13.003Z,2224
2018-05-14T11:36:13.002Z,2228
2018-05-14T11:37:13.050Z,2236
2018-05-14T11:38:13.079Z,2248
2018-05-14T11:39:13.404Z,2260
2018-05-14T11:40:13.141Z,2272
2018-05-14T11:41:13.184Z,2296
2018-05-14T11:42:13.474Z,2320
2018-05-14T11:43:12.984Z,2340
2018-05-14T11:44:13.542Z,2352
2018-05-14T11:45:13.293Z,2360
2018-05-14T11:46:13.620Z,2388
2018-05-14T11:47:13.648Z,2404
2018-05-14T11:48:13.424Z,2404
2018-05-14T11:49:13.687Z,2420
2018-05-14T11:50:13.753Z,2428
2018-05-14T11:51:13.764Z,2440
2018-05-14T11:52:13.237Z,2456
2018-05-14T11:53:13.544Z,2468
2018-05-14T11:54:13.599Z,2468
2018-05-14T11:55:13.901Z,2504
2018-05-14T11:56:13.959Z,2512
2018-05-14T11:57:13.679Z,2516
2018-05-14T11:58:13.736Z,2528
2018-05-14T11:59:14.040Z,2544
2018-05-14T12:00:13.773Z,2572
2018-05-14T12:01:13.529Z,2584
2018-05-14T12:02:14.123Z,2596
2018-05-14T12:03:13.626Z,2612
2018-05-14T12:04:13.949Z,2624
2018-05-14T12:05:14.222Z,2628
2018-05-14T12:06:14.023Z,2624
2018-05-14T12:07:14.020Z,2636
2018-05-14T12:08:14.351Z,2648
2018-05-14T12:09:14.116Z,2632
2018-05-14T12:10:14.269Z,2640
2018-05-14T12:11:14.404Z,2644
2018-05-14T12:12:14.641Z,2648
2018-05-14T12:13:14.454Z,2644
2018-05-14T12:14:13.693Z,2652
2018-05-14T12:15:14.262Z,2664
2018-05-14T12:16:15.095Z,2676
2018-05-14T12:17:14.616Z,2684
2018-05-14T12:18:14.492Z,2688
2018-05-14T12:19:14.409Z,2692
2018-05-14T12:20:14.422Z,2704
2018-05-14T12:21:14.452Z,2704
2018-05-14T12:22:14.733Z,2712
2018-05-14T12:23:14.796Z,2724
2018-05-14T12:24:14.825Z,2732
2018-05-14T12:25:14.879Z,2728
2018-05-14T12:26:14.902Z,2744
2018-05-14T12:27:14.934Z,2764
2018-05-14T12:28:14.684Z,2764
2018-05-14T12:29:14.489Z,2764
2018-05-14T12:30:14.742Z,2768
2018-05-14T12:31:14.760Z,2764
2018-05-14T12:32:15.278Z,2776
2018-05-14T12:33:15.128Z,2776
2018-05-14T12:34:14.662Z,2776
2018-05-14T12:35:15.200Z,2784
2018-05-14T12:36:15.222Z,2772
2018-05-14T12:37:14.992Z,2796
2018-05-14T12:38:15.256Z,2788
2018-05-14T12:39:14.784Z,2792
2018-05-14T12:40:15.349Z,2796
2018-05-14T12:41:15.378Z,2784
2018-05-14T12:42:14.882Z,2792
2018-05-14T12:43:15.435Z,2800
2018-05-14T12:44:15.455Z,2804
2018-05-14T12:45:14.971Z,2776
2018-05-14T12:46:15.844Z,2752
2018-05-14T12:47:15.021Z,2748
2018-05-14T12:48:15.614Z,2740
2018-05-14T12:49:15.134Z,2744
2018-05-14T12:50:15.399Z,2772
2018-05-14T12:51:15.736Z,2736
2018-05-14T12:52:15.743Z,2732
2018-05-14T12:53:15.491Z,2728
2018-05-14T12:54:15.516Z,2728
2018-05-14T12:55:15.843Z,2716
2018-05-14T12:56:15.884Z,2716
2018-05-14T12:57:16.234Z,2720
2018-05-14T12:58:15.994Z,2732
2018-05-14T12:59:15.709Z,2720
2018-05-14T13:00:15.974Z,2716
2018-05-14T13:01:16.081Z,2752
2018-05-14T13:02:16.042Z,2764
2018-05-14T13:03:15.806Z,2768
2018-05-14T13:04:16.149Z,2780
2018-05-14T13:05:16.172Z,2784
2018-05-14T13:06:15.906Z,2776
2018-05-14T13:07:16.251Z,2808
2018-05-14T13:08:15.737Z,2808
2018-05-14T13:09:16.035Z,2808
2018-05-14T13:10:16.335Z,2820
2018-05-14T13:11:16.374Z,2824
2018-05-14T13:12:16.168Z,2852
2018-05-14T13:13:16.455Z,2852
2018-05-14T13:14:16.439Z,2872
2018-05-14T13:15:16.508Z,2884
2018-05-14T13:16:16.553Z,2892
2018-05-14T13:17:16.573Z,2920
2018-05-14T13:18:16.598Z,2924
2018-05-14T13:19:16.994Z,2952
2018-05-14T13:20:16.411Z,2960
2018-05-14T13:21:16.731Z,2968
2018-05-14T13:22:16.746Z,2984
2018-05-14T13:23:16.787Z,3000
2018-05-14T13:24:16.790Z,3000
2018-05-14T13:25:16.825Z,3024
2018-05-14T13:26:16.103Z,3036
2018-05-14T13:27:16.635Z,3040
2018-05-14T13:28:16.669Z,3036
2018-05-14T13:29:16.696Z,3056
2018-05-14T13:30:16.739Z,3080
2018-05-14T13:31:16.216Z,3092
2018-05-14T13:32:16.261Z,3092
2018-05-14T13:33:16.816Z,3112
2018-05-14T13:34:17.147Z,3136
2018-05-14T13:35:17.158Z,3152
2018-05-14T13:36:16.657Z,3160
2018-05-14T13:37:17.247Z,3196
2018-05-14T13:38:17.257Z,3212
2018-05-14T13:39:17.296Z,3220
2018-05-14T13:40:17.332Z,3240
2018-05-14T13:41:17.357Z,3244
2018-05-14T13:42:16.866Z,3276
2018-05-14T13:43:17.453Z,3296
2018-05-14T13:44:17.704Z,3308
2018-05-14T13:45:17.228Z,3300
2018-05-14T13:46:17.532Z,3324
2018-05-14T13:47:17.330Z,3360
2018-05-14T13:48:17.605Z,3368
2018-05-14T13:49:17.627Z,3404
2018-05-14T13:50:17.682Z,3412
2018-05-14T13:51:17.435Z,3440